sensor_id;sensor_type;location;lat;lon;timestamp;pressure;altitude;pressure_sealevel;temperature;humidity
71948;BME280;63257;55.082;38.772;2023-02-18T00:00:18;100140.63;;;-8.01;71.34
71948;BME280;63257;55.082;38.772;2023-02-18T00:02:45;100132.16;;;-7.98;71.00
71948;BME280;63257;55.082;38.772;2023-02-18T00:05:12;100135.94;;;-7.84;70.88
71948;BME280;63257;55.082;38.772;2023-02-18T00:07:39;100119.59;;;-7.88;70.80
71948;BME280;63257;55.082;38.772;2023-02-18T00:10:08;100131.81;;;-7.77;71.35
71948;BME280;63257;55.082;38.772;2023-02-18T00:12:35;100114.78;;;-7.75;71.43
71948;BME280;63257;55.082;38.772;2023-02-18T00:15:01;100111.13;;;-7.48;71.30
71948;BME280;63257;55.082;38.772;2023-02-18T00:17:29;100100.94;;;-7.45;70.79
71948;BME280;63257;55.082;38.772;2023-02-18T00:19:55;100093.31;;;-7.41;71.06
71948;BME280;63257;55.082;38.772;2023-02-18T00:22:22;100103.22;;;-7.18;70.01
71948;BME280;63257;55.082;38.772;2023-02-18T00:24:48;100111.19;;;-7.06;70.33
71948;BME280;63257;55.082;38.772;2023-02-18T00:27:13;100097.72;;;-6.94;69.62
71948;BME280;63257;55.082;38.772;2023-02-18T00:29:39;100098.88;;;-6.79;69.20
71948;BME280;63257;55.082;38.772;2023-02-18T00:32:06;100097.41;;;-6.65;68.32
71948;BME280;63257;55.082;38.772;2023-02-18T00:34:32;100065.72;;;-6.67;68.39
71948;BME280;63257;55.082;38.772;2023-02-18T00:37:03;100071.03;;;-6.58;67.70
71948;BME280;63257;55.082;38.772;2023-02-18T00:39:29;100078.06;;;-6.48;67.85
71948;BME280;63257;55.082;38.772;2023-02-18T00:41:55;100081.63;;;-6.39;67.42
71948;BME280;63257;55.082;38.772;2023-02-18T00:44:22;100076.50;;;-6.39;67.48
71948;BME280;63257;55.082;38.772;2023-02-18T00:46:48;100058.53;;;-6.38;67.66
71948;BME280;63257;55.082;38.772;2023-02-18T00:49:14;100074.13;;;-6.27;67.31
71948;BME280;63257;55.082;38.772;2023-02-18T00:51:41;100071.44;;;-6.35;67.61
71948;BME280;63257;55.082;38.772;2023-02-18T00:54:07;100036.13;;;-6.46;67.62
71948;BME280;63257;55.082;38.772;2023-02-18T00:56:34;100048.47;;;-6.25;66.96
71948;BME280;63257;55.082;38.772;2023-02-18T00:59:00;100067.59;;;-6.08;66.48
71948;BME280;63257;55.082;38.772;2023-02-18T01:01:26;100054.63;;;-6.16;66.06
71948;BME280;63257;55.082;38.772;2023-02-18T01:03:52;100060.84;;;-6.03;65.78
71948;BME280;63257;55.082;38.772;2023-02-18T01:06:19;100069.38;;;-6.04;65.18
71948;BME280;63257;55.082;38.772;2023-02-18T01:08:47;100051.34;;;-6.07;64.45
71948;BME280;63257;55.082;38.772;2023-02-18T01:11:14;100026.28;;;-6.20;63.94
71948;BME280;63257;55.082;38.772;2023-02-18T01:13:41;100018.59;;;-6.19;64.32
71948;BME280;63257;55.082;38.772;2023-02-18T01:16:07;100040.91;;;-6.16;63.79
71948;BME280;63257;55.082;38.772;2023-02-18T01:18:34;100039.09;;;-6.23;64.26
71948;BME280;63257;55.082;38.772;2023-02-18T01:21:03;100039.97;;;-6.21;64.02
71948;BME280;63257;55.082;38.772;2023-02-18T01:23:35;100033.06;;;-6.25;64.15
71948;BME280;63257;55.082;38.772;2023-02-18T01:26:01;100027.13;;;-6.21;64.50
71948;BME280;63257;55.082;38.772;2023-02-18T01:28:30;100019.56;;;-6.12;63.69
71948;BME280;63257;55.082;38.772;2023-02-18T01:30:56;100023.03;;;-6.10;63.62
71948;BME280;63257;55.082;38.772;2023-02-18T01:33:23;99997.19;;;-6.19;63.96
71948;BME280;63257;55.082;38.772;2023-02-18T01:35:51;99994.63;;;-6.19;64.26
71948;BME280;63257;55.082;38.772;2023-02-18T01:38:17;100003.50;;;-5.96;63.51
71948;BME280;63257;55.082;38.772;2023-02-18T01:40:47;100016.34;;;-5.97;64.34
71948;BME280;63257;55.082;38.772;2023-02-18T01:43:13;100001.94;;;-5.86;63.66
71948;BME280;63257;55.082;38.772;2023-02-18T01:50:56;100002.03;;;-5.78;63.44
71948;BME280;63257;55.082;38.772;2023-02-18T01:53:38;99996.75;;;-5.89;63.96
71948;BME280;63257;55.082;38.772;2023-02-18T01:56:09;99994.25;;;-5.83;63.71
71948;BME280;63257;55.082;38.772;2023-02-18T01:58:36;99997.69;;;-5.84;64.02
71948;BME280;63257;55.082;38.772;2023-02-18T02:01:03;99979.06;;;-5.66;63.46
71948;BME280;63257;55.082;38.772;2023-02-18T02:03:30;99981.63;;;-5.66;63.67
71948;BME280;63257;55.082;38.772;2023-02-18T02:05:56;99985.09;;;-5.64;63.37
71948;BME280;63257;55.082;38.772;2023-02-18T02:08:21;99980.66;;;-5.75;63.90
71948;BME280;63257;55.082;38.772;2023-02-18T02:11:21;99967.69;;;-5.83;64.41
71948;BME280;63257;55.082;38.772;2023-02-18T02:14:12;99977.34;;;-5.67;64.19
71948;BME280;63257;55.082;38.772;2023-02-18T02:30:53;99962.31;;;-5.33;63.41
71948;BME280;63257;55.082;38.772;2023-02-18T02:36:18;99952.84;;;-5.37;64.50
71948;BME280;63257;55.082;38.772;2023-02-18T02:39:07;99956.44;;;-5.21;63.63
71948;BME280;63257;55.082;38.772;2023-02-18T02:47:20;99915.91;;;-5.40;63.74
71948;BME280;63257;55.082;38.772;2023-02-18T02:52:29;99936.91;;;-5.02;62.89
71948;BME280;63257;55.082;38.772;2023-02-18T02:54:56;99918.84;;;-5.06;63.15
71948;BME280;63257;55.082;38.772;2023-02-18T03:00:05;99924.94;;;-4.95;63.18
71948;BME280;63257;55.082;38.772;2023-02-18T03:02:57;99914.59;;;-5.03;63.60
71948;BME280;63257;55.082;38.772;2023-02-18T03:05:54;99908.66;;;-4.97;63.53
71948;BME280;63257;55.082;38.772;2023-02-18T03:08:43;99913.00;;;-4.90;63.23
71948;BME280;63257;55.082;38.772;2023-02-18T03:11:13;99912.06;;;-4.97;64.01
71948;BME280;63257;55.082;38.772;2023-02-18T03:16:23;99903.53;;;-4.92;63.99
71948;BME280;63257;55.082;38.772;2023-02-18T03:21:46;99894.97;;;-4.88;63.38
71948;BME280;63257;55.082;38.772;2023-02-18T03:24:19;99886.41;;;-4.86;63.96
71948;BME280;63257;55.082;38.772;2023-02-18T03:26:57;99886.41;;;-4.89;63.61
71948;BME280;63257;55.082;38.772;2023-02-18T03:29:24;99885.47;;;-4.99;64.06
71948;BME280;63257;55.082;38.772;2023-02-18T03:31:55;99858.81;;;-5.05;64.31
71948;BME280;63257;55.082;38.772;2023-02-18T03:34:32;99872.63;;;-4.92;64.04
71948;BME280;63257;55.082;38.772;2023-02-18T03:37:00;99874.38;;;-4.88;64.31
71948;BME280;63257;55.082;38.772;2023-02-18T03:39:29;99868.34;;;-4.92;64.71
71948;BME280;63257;55.082;38.772;2023-02-18T03:41:57;99864.06;;;-4.90;63.88
71948;BME280;63257;55.082;38.772;2023-02-18T03:44:24;99866.72;;;-4.81;64.40
71948;BME280;63257;55.082;38.772;2023-02-18T03:46:50;99855.53;;;-4.83;64.09
71948;BME280;63257;55.082;38.772;2023-02-18T03:49:16;99852.19;;;-4.72;63.41
71948;BME280;63257;55.082;38.772;2023-02-18T03:51:42;99847.97;;;-4.60;63.39
71948;BME280;63257;55.082;38.772;2023-02-18T03:54:09;99839.34;;;-4.65;63.49
71948;BME280;63257;55.082;38.772;2023-02-18T03:56:36;99837.59;;;-4.69;63.72
71948;BME280;63257;55.082;38.772;2023-02-18T03:59:05;99829.00;;;-4.74;63.94
71948;BME280;63257;55.082;38.772;2023-02-18T04:01:32;99836.84;;;-4.58;63.65
71948;BME280;63257;55.082;38.772;2023-02-18T04:03:58;99832.47;;;-4.69;63.84
71948;BME280;63257;55.082;38.772;2023-02-18T04:06:24;99809.25;;;-4.77;64.03
71948;BME280;63257;55.082;38.772;2023-02-18T04:08:49;99827.22;;;-4.81;64.29
71948;BME280;63257;55.082;38.772;2023-02-18T04:11:15;99827.31;;;-4.67;64.34
71948;BME280;63257;55.082;38.772;2023-02-18T04:13:43;99824.78;;;-4.66;64.10
71948;BME280;63257;55.082;38.772;2023-02-18T04:16:09;99822.22;;;-4.60;64.10
71948;BME280;63257;55.082;38.772;2023-02-18T04:18:35;99811.00;;;-4.66;63.98
71948;BME280;63257;55.082;38.772;2023-02-18T04:21:01;99791.25;;;-4.72;63.68
71948;BME280;63257;55.082;38.772;2023-02-18T04:23:27;99804.16;;;-4.66;63.77
71948;BME280;63257;55.082;38.772;2023-02-18T04:25:52;99805.03;;;-4.65;64.18
71948;BME280;63257;55.082;38.772;2023-02-18T04:28:18;99796.44;;;-4.66;63.81
71948;BME280;63257;55.082;38.772;2023-02-18T04:30:45;99804.19;;;-4.56;64.83
71948;BME280;63257;55.082;38.772;2023-02-18T04:33:11;99789.56;;;-4.62;64.34
71948;BME280;63257;55.082;38.772;2023-02-18T04:35:38;99786.09;;;-4.67;63.99
71948;BME280;63257;55.082;38.772;2023-02-18T04:38:08;99786.16;;;-4.56;63.95
71948;BME280;63257;55.082;38.772;2023-02-18T04:40:34;99771.53;;;-4.65;63.86
71948;BME280;63257;55.082;38.772;2023-02-18T04:43:01;99781.00;;;-4.63;64.21
71948;BME280;63257;55.082;38.772;2023-02-18T04:45:27;99778.44;;;-4.56;64.20
71948;BME280;63257;55.082;38.772;2023-02-18T04:47:53;99740.63;;;-4.61;64.06
71948;BME280;63257;55.082;38.772;2023-02-18T04:50:19;99760.50;;;-4.39;63.63
71948;BME280;63257;55.082;38.772;2023-02-18T04:52:45;99738.97;;;-4.52;63.79
71948;BME280;63257;55.082;38.772;2023-02-18T04:55:11;99755.31;;;-4.49;64.31
71948;BME280;63257;55.082;38.772;2023-02-18T04:57:38;99755.31;;;-4.44;63.92
71948;BME280;63257;55.082;38.772;2023-02-18T05:00:06;99752.75;;;-4.46;63.92
71948;BME280;63257;55.082;38.772;2023-02-18T05:02:33;99741.53;;;-4.58;64.56
71948;BME280;63257;55.082;38.772;2023-02-18T05:04:58;99743.31;;;-4.42;64.24
71948;BME280;63257;55.082;38.772;2023-02-18T05:07:25;99748.41;;;-4.51;64.86
71948;BME280;63257;55.082;38.772;2023-02-18T05:09:51;99740.69;;;-4.54;65.16
71948;BME280;63257;55.082;38.772;2023-02-18T05:12:17;99736.38;;;-4.54;64.90
71948;BME280;63257;55.082;38.772;2023-02-18T05:14:42;99730.41;;;-4.47;64.59
71948;BME280;63257;55.082;38.772;2023-02-18T05:17:08;99744.16;;;-4.40;64.46
71948;BME280;63257;55.082;38.772;2023-02-18T05:19:34;99733.88;;;-4.41;64.51
71948;BME280;63257;55.082;38.772;2023-02-18T05:22:00;99730.44;;;-4.42;64.67
71948;BME280;63257;55.082;38.772;2023-02-18T05:24:27;99723.59;;;-4.26;64.29
71948;BME280;63257;55.082;38.772;2023-02-18T05:26:53;99724.53;;;-4.15;64.19
71948;BME280;63257;55.082;38.772;2023-02-18T05:29:18;99721.97;;;-4.02;63.35
71948;BME280;63257;55.082;38.772;2023-02-18T05:31:44;99726.25;;;-4.12;63.46
71948;BME280;63257;55.082;38.772;2023-02-18T05:34:10;99716.78;;;-4.07;63.80
71948;BME280;63257;55.082;38.772;2023-02-18T05:36:36;99693.59;;;-4.15;63.76
71948;BME280;63257;55.082;38.772;2023-02-18T05:39:02;99702.16;;;-4.13;63.90
71948;BME280;63257;55.082;38.772;2023-02-18T05:41:27;99701.34;;;-3.98;64.19
71948;BME280;63257;55.082;38.772;2023-02-18T05:43:53;99693.63;;;-3.92;63.90
71948;BME280;63257;55.082;38.772;2023-02-18T05:46:38;99678.97;;;-4.10;64.21
71948;BME280;63257;55.082;38.772;2023-02-18T05:49:04;99689.31;;;-3.97;64.22
71948;BME280;63257;55.082;38.772;2023-02-18T05:51:30;99684.13;;;-4.10;64.32
71948;BME280;63257;55.082;38.772;2023-02-18T05:53:56;99684.13;;;-4.13;64.34
71948;BME280;63257;55.082;38.772;2023-02-18T05:56:23;99681.59;;;-3.93;63.65
71948;BME280;63257;55.082;38.772;2023-02-18T05:58:49;99672.16;;;-3.83;63.71
71948;BME280;63257;55.082;38.772;2023-02-18T06:05:33;99668.69;;;-3.88;64.10
71948;BME280;63257;55.082;38.772;2023-02-18T06:07:59;99656.69;;;-3.87;63.99
71948;BME280;63257;55.082;38.772;2023-02-18T06:10:25;99652.38;;;-3.88;63.94
71948;BME280;63257;55.082;38.772;2023-02-18T06:12:51;99646.34;;;-3.89;63.64
71948;BME280;63257;55.082;38.772;2023-02-18T06:15:17;99637.75;;;-3.79;63.60
71948;BME280;63257;55.082;38.772;2023-02-18T06:17:42;99617.97;;;-3.81;63.61
71948;BME280;63257;55.082;38.772;2023-02-18T06:20:10;99630.88;;;-3.69;63.54
71948;BME280;63257;55.082;38.772;2023-02-18T06:22:36;99632.59;;;-3.68;64.00
71948;BME280;63257;55.082;38.772;2023-02-18T06:25:01;99635.16;;;-3.63;63.53
71948;BME280;63257;55.082;38.772;2023-02-18T06:27:29;99630.91;;;-3.63;63.05
71948;BME280;63257;55.082;38.772;2023-02-18T06:29:55;99632.59;;;-3.57;62.61
71948;BME280;63257;55.082;38.772;2023-02-18T06:32:21;99625.69;;;-3.44;62.55
71948;BME280;63257;55.082;38.772;2023-02-18T06:34:47;99630.00;;;-3.40;62.78
71948;BME280;63257;55.082;38.772;2023-02-18T06:37:12;99622.25;;;-3.40;62.71
71948;BME280;63257;55.082;38.772;2023-02-18T06:43:58;99618.84;;;-3.61;63.58
71948;BME280;63257;55.082;38.772;2023-02-18T06:46:23;99618.81;;;-3.48;62.32
71948;BME280;63257;55.082;38.772;2023-02-18T06:48:49;99605.03;;;-3.33;62.01
71948;BME280;63257;55.082;38.772;2023-02-18T06:51:15;99611.09;;;-3.64;62.75
71948;BME280;63257;55.082;38.772;2023-02-18T06:53:42;99608.50;;;-3.41;62.94
71948;BME280;63257;55.082;38.772;2023-02-18T06:56:08;99606.75;;;-3.28;62.71
71948;BME280;63257;55.082;38.772;2023-02-18T06:58:34;99608.44;;;-3.24;62.22
71948;BME280;63257;55.082;38.772;2023-02-18T07:05:20;99582.69;;;-3.45;63.81
71948;BME280;63257;55.082;38.772;2023-02-18T07:07:45;99589.56;;;-3.46;62.59
71948;BME280;63257;55.082;38.772;2023-02-18T07:10:11;99586.13;;;-3.48;62.74
71948;BME280;63257;55.082;38.772;2023-02-18T07:12:38;99575.81;;;-3.46;61.86
71948;BME280;63257;55.082;38.772;2023-02-18T07:15:04;99561.19;;;-3.43;62.18
71948;BME280;63257;55.082;38.772;2023-02-18T07:17:30;99574.88;;;-3.16;61.45
71948;BME280;63257;55.082;38.772;2023-02-18T07:24:15;99557.63;;;-3.06;61.04
71948;BME280;63257;55.082;38.772;2023-02-18T07:30:53;99548.97;;;-2.99;60.46
71948;BME280;63257;55.082;38.772;2023-02-18T07:33:19;99537.84;;;-3.10;61.13
71948;BME280;63257;55.082;38.772;2023-02-18T07:35:45;99548.06;;;-2.90;61.24
71948;BME280;63257;55.082;38.772;2023-02-18T07:38:11;99541.31;;;-3.16;61.22
71948;BME280;63257;55.082;38.772;2023-02-18T07:40:36;99538.69;;;-3.03;60.48
71948;BME280;63257;55.082;38.772;2023-02-18T07:43:03;99535.16;;;-2.85;60.01
71948;BME280;63257;55.082;38.772;2023-02-18T07:45:29;99536.03;;;-2.94;60.48
71948;BME280;63257;55.082;38.772;2023-02-18T07:47:54;99534.28;;;-2.86;60.19
71948;BME280;63257;55.082;38.772;2023-02-18T07:50:20;99531.66;;;-2.78;60.18
71948;BME280;63257;55.082;38.772;2023-02-18T07:52:46;99522.09;;;-2.67;59.51
71948;BME280;63257;55.082;38.772;2023-02-18T07:55:12;99526.41;;;-2.66;59.90
71948;BME280;63257;55.082;38.772;2023-02-18T07:57:38;99510.94;;;-2.67;60.17
71948;BME280;63257;55.082;38.772;2023-02-18T08:00:22;99449.06;;;-2.89;59.43
71948;BME280;63257;55.082;38.772;2023-02-18T08:02:47;99509.09;;;-2.48;59.11
71948;BME280;63257;55.082;38.772;2023-02-18T08:05:14;99498.69;;;-2.42;59.44
71948;BME280;63257;55.082;38.772;2023-02-18T08:07:40;99476.31;;;-2.46;57.94
71948;BME280;63257;55.082;38.772;2023-02-18T08:10:06;99497.00;;;-2.43;59.79
71948;BME280;63257;55.082;38.772;2023-02-18T08:12:32;99472.81;;;-2.36;63.16
71948;BME280;63257;55.082;38.772;2023-02-18T08:14:58;99470.94;;;-2.18;58.80
71948;BME280;63257;55.082;38.772;2023-02-18T08:17:24;99476.91;;;-2.10;62.18
71948;BME280;63257;55.082;38.772;2023-02-18T08:19:50;99473.44;;;-2.11;58.41
71948;BME280;63257;55.082;38.772;2023-02-18T08:22:15;99469.97;;;-2.08;62.88
71948;BME280;63257;55.082;38.772;2023-02-18T08:24:41;99466.50;;;-2.06;58.67
71948;BME280;63257;55.082;38.772;2023-02-18T08:27:08;99461.38;;;-2.10;59.61
71948;BME280;63257;55.082;38.772;2023-02-18T08:29:33;99456.31;;;-2.23;58.04
71948;BME280;63257;55.082;38.772;2023-02-18T08:31:59;99454.25;;;-1.91;56.54
71948;BME280;63257;55.082;38.772;2023-02-18T08:34:25;99452.56;;;-1.91;57.44
71948;BME280;63257;55.082;38.772;2023-02-18T08:36:51;99448.25;;;-1.92;56.13
71948;BME280;63257;55.082;38.772;2023-02-18T08:39:17;99433.72;;;-2.02;56.84
71948;BME280;63257;55.082;38.772;2023-02-18T08:41:43;99424.00;;;-1.81;58.96
71948;BME280;63257;55.082;38.772;2023-02-18T08:44:09;99423.00;;;-1.71;55.71
71948;BME280;63257;55.082;38.772;2023-02-18T08:46:35;99420.31;;;-1.60;55.11
71948;BME280;63257;55.082;38.772;2023-02-18T08:49:01;99412.50;;;-1.59;54.96
71948;BME280;63257;55.082;38.772;2023-02-18T08:51:27;99409.22;;;-1.70;57.73
71948;BME280;63257;55.082;38.772;2023-02-18T08:53:54;99414.88;;;-1.39;54.49
71948;BME280;63257;55.082;38.772;2023-02-18T08:56:20;99407.13;;;-1.40;55.64
71948;BME280;63257;55.082;38.772;2023-02-18T08:58:46;99404.63;;;-1.48;55.93
71948;BME280;63257;55.082;38.772;2023-02-18T09:01:12;99380.44;;;-1.45;54.53
71948;BME280;63257;55.082;38.772;2023-02-18T09:03:38;99395.06;;;-1.43;54.67
71948;BME280;63257;55.082;38.772;2023-02-18T09:06:05;99379.50;;;-1.40;54.81
71948;BME280;63257;55.082;38.772;2023-02-18T09:08:30;99385.31;;;-1.24;55.05
71948;BME280;63257;55.082;38.772;2023-02-18T09:10:58;99379.25;;;-1.23;54.69
71948;BME280;63257;55.082;38.772;2023-02-18T09:13:24;99370.69;;;-1.29;54.77
71948;BME280;63257;55.082;38.772;2023-02-18T09:16:03;99352.56;;;-1.29;55.08
71948;BME280;63257;55.082;38.772;2023-02-18T09:18:30;99363.56;;;-1.13;54.43
71948;BME280;63257;55.082;38.772;2023-02-18T09:20:58;99366.91;;;-1.05;54.46
71948;BME280;63257;55.082;38.772;2023-02-18T09:23:26;99357.47;;;-1.09;54.11
71948;BME280;63257;55.082;38.772;2023-02-18T09:30:10;99351.41;;;-1.07;53.89
71948;BME280;63257;55.082;38.772;2023-02-18T09:32:36;99342.59;;;-0.95;53.88
71948;BME280;63257;55.082;38.772;2023-02-18T09:35:03;99341.72;;;-0.95;53.25
71948;BME280;63257;55.082;38.772;2023-02-18T09:37:29;99338.91;;;-0.83;53.36
71948;BME280;63257;55.082;38.772;2023-02-18T09:39:55;99326.97;;;-0.92;53.75
71948;BME280;63257;55.082;38.772;2023-02-18T09:42:26;99332.03;;;-0.86;54.10
71948;BME280;63257;55.082;38.772;2023-02-18T09:45:03;99327.66;;;-0.80;53.28
71948;BME280;63257;55.082;38.772;2023-02-18T09:47:41;99318.13;;;-0.78;52.83
71948;BME280;63257;55.082;38.772;2023-02-18T09:50:23;99323.28;;;-0.77;55.37
71948;BME280;63257;55.082;38.772;2023-02-18T09:52:51;99312.72;;;-0.68;56.20
71948;BME280;63257;55.082;38.772;2023-02-18T09:55:18;99314.34;;;-0.60;58.18
71948;BME280;63257;55.082;38.772;2023-02-18T09:57:48;99306.25;;;-0.43;58.07
71948;BME280;63257;55.082;38.772;2023-02-18T10:00:22;99302.19;;;-0.57;54.38
71948;BME280;63257;55.082;38.772;2023-02-18T10:02:57;99301.28;;;-0.54;55.43
71948;BME280;63257;55.082;38.772;2023-02-18T10:09:42;99278.13;;;-0.65;57.54
71948;BME280;63257;55.082;38.772;2023-02-18T10:16:23;99257.06;;;-0.93;53.60
71948;BME280;63257;55.082;38.772;2023-02-18T10:18:53;99263.78;;;-0.83;54.95
71948;BME280;63257;55.082;38.772;2023-02-18T10:21:23;99272.19;;;-0.70;54.66
71948;BME280;63257;55.082;38.772;2023-02-18T10:24:12;99253.34;;;-0.80;53.45
71948;BME280;63257;55.082;38.772;2023-02-18T10:26:42;99256.88;;;-0.82;54.77
71948;BME280;63257;55.082;38.772;2023-02-18T10:29:17;99245.19;;;-1.07;54.37
71948;BME280;63257;55.082;38.772;2023-02-18T10:31:48;99240.34;;;-0.77;54.11
71948;BME280;63257;55.082;38.772;2023-02-18T10:34:40;99251.34;;;-0.64;53.19
71948;BME280;63257;55.082;38.772;2023-02-18T10:45:27;99230.09;;;-0.83;53.73
71948;BME280;63257;55.082;38.772;2023-02-18T10:50:44;99219.34;;;-0.63;52.29
71948;BME280;63257;55.082;38.772;2023-02-18T10:53:34;99215.47;;;-0.42;52.87
71948;BME280;63257;55.082;38.772;2023-02-18T10:56:01;99201.75;;;-0.45;51.94
71948;BME280;63257;55.082;38.772;2023-02-18T11:01:03;99198.03;;;-0.33;52.00
71948;BME280;63257;55.082;38.772;2023-02-18T11:03:44;99189.28;;;-0.70;52.97
71948;BME280;63257;55.082;38.772;2023-02-18T11:06:33;99179.16;;;-0.86;54.12
71948;BME280;63257;55.082;38.772;2023-02-18T11:09:02;99191.25;;;-0.84;54.04
71948;BME280;63257;55.082;38.772;2023-02-18T11:11:46;99179.97;;;-0.82;53.79
71948;BME280;63257;55.082;38.772;2023-02-18T11:14:15;99177.25;;;-0.74;53.57
71948;BME280;63257;55.082;38.772;2023-02-18T11:17:08;99177.78;;;-0.58;53.52
71948;BME280;63257;55.082;38.772;2023-02-18T11:19:38;99172.47;;;-0.50;54.08
71948;BME280;63257;55.082;38.772;2023-02-18T11:22:15;99172.31;;;-0.44;52.99
71948;BME280;63257;55.082;38.772;2023-02-18T11:24:43;99176.81;;;-0.53;54.15
71948;BME280;63257;55.082;38.772;2023-02-18T11:29:53;99141.88;;;-0.36;52.55
71948;BME280;63257;55.082;38.772;2023-02-18T11:32:20;99149.22;;;-0.57;53.80
71948;BME280;63257;55.082;38.772;2023-02-18T11:34:48;99157.38;;;-0.74;54.43
71948;BME280;63257;55.082;38.772;2023-02-18T11:37:18;99152.69;;;-0.56;54.69
71948;BME280;63257;55.082;38.772;2023-02-18T11:43:14;99127.09;;;-0.73;53.08
71948;BME280;63257;55.082;38.772;2023-02-18T11:46:10;99134.75;;;-0.65;54.15
71948;BME280;63257;55.082;38.772;2023-02-18T11:49:10;99133.72;;;-0.58;54.11
71948;BME280;63257;55.082;38.772;2023-02-18T11:58:21;99118.13;;;-0.57;53.79
71948;BME280;63257;55.082;38.772;2023-02-18T12:00:50;99117.34;;;-0.60;53.50
71948;BME280;63257;55.082;38.772;2023-02-18T12:05:53;99101.25;;;-0.76;53.75
71948;BME280;63257;55.082;38.772;2023-02-18T12:08:26;99108.31;;;-0.83;54.82
71948;BME280;63257;55.082;38.772;2023-02-18T12:11:00;99088.34;;;-0.78;53.86
71948;BME280;63257;55.082;38.772;2023-02-18T12:13:36;99091.06;;;-0.86;54.56
71948;BME280;63257;55.082;38.772;2023-02-18T12:16:12;99096.16;;;-0.79;54.11
71948;BME280;63257;55.082;38.772;2023-02-18T12:19:06;99075.69;;;-0.92;53.22
71948;BME280;63257;55.082;38.772;2023-02-18T12:25:00;99082.44;;;-1.30;54.15
71948;BME280;63257;55.082;38.772;2023-02-18T12:40:46;99080.88;;;-1.37;54.88
71948;BME280;63257;55.082;38.772;2023-02-18T12:43:31;99079.75;;;-1.25;55.62
71948;BME280;63257;55.082;38.772;2023-02-18T12:51:29;99060.19;;;-1.39;56.59
71948;BME280;63257;55.082;38.772;2023-02-18T12:57:06;99020.97;;;-1.65;56.71
71948;BME280;63257;55.082;38.772;2023-02-18T13:16:03;99020.81;;;-2.05;57.54
71948;BME280;63257;55.082;38.772;2023-02-18T13:21:08;99024.34;;;-2.09;57.87
71948;BME280;63257;55.082;38.772;2023-02-18T13:23:39;99019.34;;;-2.19;57.42
71948;BME280;63257;55.082;38.772;2023-02-18T13:26:12;99019.41;;;-2.26;57.12
71948;BME280;63257;55.082;38.772;2023-02-18T13:31:49;99012.56;;;-2.27;58.08
71948;BME280;63257;55.082;38.772;2023-02-18T13:34:28;99004.81;;;-2.27;58.51
71948;BME280;63257;55.082;38.772;2023-02-18T13:37:22;99003.16;;;-2.31;57.83
71948;BME280;63257;55.082;38.772;2023-02-18T13:39:56;98979.19;;;-2.42;57.56
71948;BME280;63257;55.082;38.772;2023-02-18T13:50:38;99001.72;;;-2.52;57.97
71948;BME280;63257;55.082;38.772;2023-02-18T13:55:57;98976.94;;;-2.65;58.16
71948;BME280;63257;55.082;38.772;2023-02-18T13:58:34;98978.63;;;-2.63;58.76
71948;BME280;63257;55.082;38.772;2023-02-18T14:08:49;98966.81;;;-2.79;58.94
71948;BME280;63257;55.082;38.772;2023-02-18T14:14:12;98971.16;;;-2.80;59.02
71948;BME280;63257;55.082;38.772;2023-02-18T14:19:39;98958.50;;;-3.00;59.88
71948;BME280;63257;55.082;38.772;2023-02-18T14:27:41;98948.28;;;-3.06;60.53
71948;BME280;63257;55.082;38.772;2023-02-18T14:30:24;98943.16;;;-3.11;59.76
71948;BME280;63257;55.082;38.772;2023-02-18T14:32:57;98931.25;;;-3.19;60.78
71948;BME280;63257;55.082;38.772;2023-02-18T14:35:39;98935.56;;;-3.20;60.43
71948;BME280;63257;55.082;38.772;2023-02-18T14:44:23;98927.03;;;-3.25;61.26
71948;BME280;63257;55.082;38.772;2023-02-18T14:47:19;98904.66;;;-3.26;61.51
71948;BME280;63257;55.082;38.772;2023-02-18T14:49:54;98911.59;;;-3.28;60.99
71948;BME280;63257;55.082;38.772;2023-02-18T14:52:47;98901.47;;;-3.45;61.17
71948;BME280;63257;55.082;38.772;2023-02-18T14:55:21;98908.34;;;-3.44;61.75
71948;BME280;63257;55.082;38.772;2023-02-18T14:58:34;98905.78;;;-3.44;62.38
71948;BME280;63257;55.082;38.772;2023-02-18T15:00:41;98901.63;;;-3.58;62.16
71948;BME280;63257;55.082;38.772;2023-02-18T15:03:11;98904.25;;;-3.59;62.20
71948;BME280;63257;55.082;38.772;2023-02-18T15:05:38;98910.09;;;-3.48;62.00
71948;BME280;63257;55.082;38.772;2023-02-18T15:08:09;98905.09;;;-3.57;62.05
71948;BME280;63257;55.082;38.772;2023-02-18T15:13:18;98869.19;;;-3.76;62.87
71948;BME280;63257;55.082;38.772;2023-02-18T15:15:54;98846.09;;;-3.85;62.64
71948;BME280;63257;55.082;38.772;2023-02-18T15:18:43;98889.44;;;-3.43;62.17
71948;BME280;63257;55.082;38.772;2023-02-18T15:21:34;98877.50;;;-3.53;62.66
71948;BME280;63257;55.082;38.772;2023-02-18T15:24:08;98874.09;;;-3.54;62.59
71948;BME280;63257;55.082;38.772;2023-02-18T15:26:45;98874.00;;;-3.46;62.39
71948;BME280;63257;55.082;38.772;2023-02-18T15:29:19;98876.47;;;-3.40;62.45
71948;BME280;63257;55.082;38.772;2023-02-18T15:31:46;98863.88;;;-3.63;62.36
71948;BME280;63257;55.082;38.772;2023-02-18T15:36:55;98866.44;;;-3.62;62.69
71948;BME280;63257;55.082;38.772;2023-02-18T15:39:24;98853.53;;;-3.59;62.58
71948;BME280;63257;55.082;38.772;2023-02-18T15:42:04;98844.94;;;-3.61;62.44
71948;BME280;63257;55.082;38.772;2023-02-18T15:44:35;98849.16;;;-3.55;62.33
71948;BME280;63257;55.082;38.772;2023-02-18T15:47:04;98842.28;;;-3.54;63.25
71948;BME280;63257;55.082;38.772;2023-02-18T15:49:33;98843.13;;;-3.54;63.20
71948;BME280;63257;55.082;38.772;2023-02-18T15:52:04;98832.09;;;-3.64;62.13
71948;BME280;63257;55.082;38.772;2023-02-18T15:54:36;98827.84;;;-3.68;62.14
71948;BME280;63257;55.082;38.772;2023-02-18T15:57:04;98824.47;;;-3.73;62.16
71948;BME280;63257;55.082;38.772;2023-02-18T15:59:33;98828.69;;;-3.67;62.33
71948;BME280;63257;55.082;38.772;2023-02-18T16:02:20;98806.50;;;-3.79;62.52
71948;BME280;63257;55.082;38.772;2023-02-18T16:04:52;98804.69;;;-3.74;62.93
71948;BME280;63257;55.082;38.772;2023-02-18T16:07:47;98815.00;;;-3.74;62.72
71948;BME280;63257;55.082;38.772;2023-02-18T16:10:47;98812.50;;;-3.77;62.80
71948;BME280;63257;55.082;38.772;2023-02-18T16:13:16;98805.63;;;-3.78;62.12